createdAt,value
2023-04-11T00:00:14.324Z,99125.69
2023-04-11T00:02:40.908Z,99118.59
2023-04-11T00:05:08.122Z,99109.97
2023-04-11T00:07:34.599Z,99120.81
2023-04-11T00:10:01.663Z,99107.59
2023-04-11T00:12:28.162Z,99116.38
2023-04-11T00:14:55.378Z,99134.06
2023-04-11T00:17:23.502Z,99133.19
2023-04-11T00:19:53.105Z,99120.56
2023-04-11T00:22:19.440Z,99125.56
2023-04-11T00:24:45.839Z,99127.53
2023-04-11T00:27:12.151Z,99123.19
2023-04-11T00:29:38.465Z,99120.56
2023-04-11T00:32:05.231Z,99119.16
2023-04-11T00:34:31.553Z,99123.06
2023-04-11T00:36:57.946Z,99123.63
2023-04-11T00:39:26.248Z,99133.22
2023-04-11T00:41:52.777Z,99134.91
2023-04-11T00:44:19.072Z,99154.00
2023-04-11T00:46:46.369Z,99147.44
2023-04-11T00:49:13.277Z,99136.84
2023-04-11T00:51:39.665Z,99124.44
2023-04-11T00:54:10.108Z,99115.53
2023-04-11T00:56:36.503Z,99111.75
2023-04-11T00:59:03.288Z,99103.56
2023-04-11T01:01:30.030Z,99105.25
2023-04-11T01:03:57.110Z,99109.13
2023-04-11T01:06:24.590Z,99118.75
2023-04-11T01:08:51.070Z,99108.00
2023-04-11T01:11:20.083Z,99107.91
2023-04-11T01:13:46.758Z,99115.78
2023-04-11T01:16:14.887Z,99106.75
2023-04-11T01:18:41.409Z,99082.78
2023-04-11T01:21:08.678Z,99067.91
2023-04-11T01:23:35.369Z,99076.25
2023-04-11T01:26:01.740Z,99075.38
2023-04-11T01:28:28.065Z,99075.56
2023-04-11T01:30:54.590Z,99073.91
2023-04-11T01:33:21.120Z,99073.88
2023-04-11T01:35:48.260Z,99070.28
2023-04-11T01:38:14.859Z,99087.59
2023-04-11T01:40:41.875Z,99075.09
2023-04-11T01:43:09.779Z,99088.38
2023-04-11T01:45:36.397Z,99093.50
2023-04-11T01:48:07.333Z,99099.13
2023-04-11T01:50:34.188Z,99109.03
2023-04-11T01:53:00.530Z,99115.41
2023-04-11T01:55:28.844Z,99121.66
2023-04-11T01:57:55.306Z,99129.53
2023-04-11T02:00:21.981Z,99131.78
2023-04-11T02:02:48.399Z,99135.00
2023-04-11T02:05:15.345Z,99109.47
2023-04-11T02:07:41.643Z,99094.88
2023-04-11T02:10:08.483Z,99107.03
2023-04-11T02:12:34.791Z,99115.66
2023-04-11T02:15:01.235Z,99129.75
2023-04-11T02:17:30.941Z,99138.06
2023-04-11T02:19:57.892Z,99120.72
2023-04-11T02:22:24.759Z,99117.09
2023-04-11T02:24:51.300Z,99110.38
2023-04-11T02:27:17.661Z,99093.66
2023-04-11T02:29:43.956Z,99110.28
2023-04-11T02:32:10.625Z,99110.63
2023-04-11T02:34:37.992Z,99106.69
2023-04-11T02:37:04.339Z,99119.88
2023-04-11T02:39:31.358Z,99111.19
2023-04-11T02:41:57.800Z,99114.59
2023-04-11T02:44:26.138Z,99108.09
2023-04-11T02:46:52.610Z,99083.50
2023-04-11T02:49:19.924Z,99101.75
2023-04-11T02:51:47.493Z,99108.66
2023-04-11T02:54:13.798Z,99103.75
2023-04-11T02:56:40.179Z,99106.63
2023-04-11T02:59:07.112Z,99094.00
2023-04-11T03:01:34.221Z,99080.47
2023-04-11T03:04:00.957Z,99090.56
2023-04-11T03:06:37.728Z,99105.19
2023-04-11T03:09:04.567Z,99107.22
2023-04-11T03:11:32.865Z,99105.53
2023-04-11T03:13:59.372Z,99114.44
2023-04-11T03:16:28.025Z,99112.25
2023-04-11T03:18:54.720Z,99108.72
2023-04-11T03:21:21.285Z,99115.56
2023-04-11T03:23:48.150Z,99109.63
2023-04-11T03:26:15.837Z,99105.00
2023-04-11T03:28:43.538Z,99120.50
2023-04-11T03:31:12.051Z,99133.09
2023-04-11T03:33:39.260Z,99137.69
2023-04-11T03:36:06.451Z,99124.09
2023-04-11T03:38:33.714Z,99128.25
2023-04-11T03:41:00.141Z,99123.34
2023-04-11T03:43:27.199Z,99123.19
2023-04-11T03:45:53.847Z,99125.94
2023-04-11T03:48:33.444Z,99125.75
2023-04-11T03:51:04.776Z,99118.38
2023-04-11T03:53:38.488Z,99121.25
2023-04-11T03:56:18.953Z,99131.81
2023-04-11T03:58:45.356Z,99129.63
2023-04-11T04:01:12.280Z,99124.09
2023-04-11T04:03:39.446Z,99137.81
2023-04-11T04:06:09.583Z,99136.13
2023-04-11T04:08:36.567Z,99144.63
2023-04-11T04:11:03.120Z,99150.03
2023-04-11T04:13:32.116Z,99155.00
2023-04-11T04:16:10.568Z,99137.22
2023-04-11T04:18:39.214Z,99145.03
2023-04-11T04:21:07.371Z,99152.50
2023-04-11T04:23:36.023Z,99153.72
2023-04-11T04:26:24.729Z,99163.44
2023-04-11T04:29:05.642Z,99166.81
2023-04-11T04:31:50.473Z,99170.72
2023-04-11T04:34:21.750Z,99175.38
2023-04-11T04:36:49.624Z,99179.47
2023-04-11T04:39:25.288Z,99171.63
2023-04-11T04:41:58.219Z,99173.75
2023-04-11T04:44:29.042Z,99181.78
2023-04-11T04:46:58.949Z,99174.00
2023-04-11T04:49:27.518Z,99168.72
2023-04-11T04:51:53.822Z,99180.44
2023-04-11T04:54:20.427Z,99187.72
2023-04-11T04:56:48.125Z,99189.44
2023-04-11T04:59:16.101Z,99189.97
2023-04-11T05:01:47.090Z,99183.69
2023-04-11T05:04:14.077Z,99194.09
2023-04-11T05:06:48.874Z,99196.31
2023-04-11T05:09:17.202Z,99196.69
2023-04-11T05:11:44.405Z,99182.69
2023-04-11T05:14:10.759Z,99190.25
2023-04-11T05:16:40.705Z,99199.59
2023-04-11T05:19:07.601Z,99211.22
2023-04-11T05:21:38.473Z,99206.53
2023-04-11T05:24:05.170Z,99212.66
2023-04-11T05:26:35.499Z,99212.00
2023-04-11T05:29:02.369Z,99220.44
2023-04-11T05:31:28.901Z,99210.13
2023-04-11T05:33:56.489Z,99221.53
2023-04-11T05:36:24.242Z,99213.38
2023-04-11T05:38:50.664Z,99221.88
2023-04-11T05:41:17.076Z,99230.53
2023-04-11T05:43:43.378Z,99218.53
2023-04-11T05:46:09.836Z,99222.22
2023-04-11T05:48:36.257Z,99225.97
2023-04-11T05:51:02.594Z,99228.06
2023-04-11T05:53:29.088Z,99228.13
2023-04-11T05:55:55.577Z,99233.34
2023-04-11T05:58:22.937Z,99238.38
2023-04-11T06:00:49.558Z,99234.28
2023-04-11T06:03:16.934Z,99244.09
2023-04-11T06:05:43.535Z,99242.94
2023-04-11T06:08:10.326Z,99249.88
2023-04-11T06:10:36.717Z,99251.78
2023-04-11T06:13:03.122Z,99255.28
2023-04-11T06:15:29.514Z,99248.91
2023-04-11T06:17:56.000Z,99259.84
2023-04-11T06:20:23.658Z,99258.13
2023-04-11T06:22:53.157Z,99253.75
2023-04-11T06:25:21.007Z,99262.38
2023-04-11T06:27:48.178Z,99262.00
2023-04-11T06:30:15.099Z,99251.44
2023-04-11T06:32:41.850Z,99248.78
2023-04-11T06:35:08.870Z,99257.31
2023-04-11T06:37:35.472Z,99260.91
2023-04-11T06:40:02.103Z,99258.59
2023-04-11T06:42:28.440Z,99268.06
2023-04-11T06:44:54.725Z,99264.31
2023-04-11T06:47:21.185Z,99276.97
2023-04-11T06:49:47.539Z,99276.44
2023-04-11T06:52:13.875Z,99277.25
2023-04-11T06:54:40.660Z,99282.56
2023-04-11T06:57:07.080Z,99297.66
2023-04-11T06:59:34.688Z,99300.53
2023-04-11T07:02:01.154Z,99296.28
2023-04-11T07:04:27.689Z,99298.97
2023-04-11T07:06:54.171Z,99299.25
2023-04-11T07:09:20.580Z,99300.00
2023-04-11T07:11:47.015Z,99300.31
2023-04-11T07:14:13.367Z,99307.03
2023-04-11T07:16:39.916Z,99301.50
2023-04-11T07:19:06.386Z,99308.91
2023-04-11T07:21:33.256Z,99300.53
2023-04-11T07:24:00.918Z,99319.75
2023-04-11T07:26:31.972Z,99320.91
2023-04-11T07:28:59.432Z,99325.25
2023-04-11T07:31:27.226Z,99317.19
2023-04-11T07:33:53.894Z,99321.38
2023-04-11T07:36:20.647Z,99320.25
2023-04-11T07:38:46.990Z,99312.88
2023-04-11T07:41:13.406Z,99319.44
2023-04-11T07:43:40.527Z,99319.31
2023-04-11T07:46:07.067Z,99314.31
2023-04-11T07:48:33.457Z,99314.56
2023-04-11T07:50:59.891Z,99321.00
2023-04-11T07:53:26.812Z,99326.00
2023-04-11T07:55:53.184Z,99314.25
2023-04-11T07:58:19.678Z,99317.75
2023-04-11T08:00:46.154Z,99323.72
2023-04-11T08:03:13.661Z,99325.41
2023-04-11T08:05:40.319Z,99334.03
2023-04-11T08:08:07.010Z,99344.09
2023-04-11T08:10:34.000Z,99341.81
2023-04-11T08:13:00.873Z,99342.38
2023-04-11T08:15:27.279Z,99357.59
2023-04-11T08:17:56.943Z,99356.50
2023-04-11T08:20:24.167Z,99355.94
2023-04-11T08:22:50.665Z,99360.44
2023-04-11T08:25:22.764Z,99353.78
2023-04-11T08:27:50.772Z,99353.78
2023-04-11T08:30:17.464Z,99342.22
2023-04-11T08:32:44.057Z,99347.31
2023-04-11T08:35:10.669Z,99350.97
2023-04-11T08:37:36.993Z,99353.47
2023-04-11T08:40:06.688Z,99343.59
2023-04-11T08:42:33.787Z,99351.72
2023-04-11T08:45:03.088Z,99359.41
2023-04-11T08:47:29.738Z,99356.41
2023-04-11T08:49:59.050Z,99345.25
2023-04-11T08:52:25.545Z,99353.66
2023-04-11T08:54:56.554Z,99360.75
2023-04-11T08:57:28.254Z,99353.31
2023-04-11T08:59:56.246Z,99362.16
2023-04-11T09:02:23.123Z,99364.84
2023-04-11T09:04:49.613Z,99355.81
2023-04-11T09:07:19.287Z,99338.03
2023-04-11T09:09:46.190Z,99366.81
2023-04-11T09:12:13.279Z,99361.28
2023-04-11T09:14:39.700Z,99370.81
2023-04-11T09:17:13.657Z,99371.72
2023-04-11T09:19:42.914Z,99372.72
2023-04-11T09:22:09.437Z,99372.81
2023-04-11T09:24:36.584Z,99377.53
2023-04-11T09:27:12.002Z,99365.59
2023-04-11T09:29:48.419Z,99368.25
2023-04-11T09:32:34.841Z,99363.16
2023-04-11T09:35:15.643Z,99357.34
2023-04-11T09:37:47.979Z,99356.53
2023-04-11T09:40:16.296Z,99381.53
2023-04-11T09:42:43.432Z,99379.50
2023-04-11T09:45:18.594Z,99364.84
2023-04-11T09:47:47.234Z,99372.41
2023-04-11T09:50:14.085Z,99377.53
2023-04-11T09:52:43.030Z,99369.84
2023-04-11T09:55:11.650Z,99372.28
2023-04-11T09:57:41.239Z,99366.78
2023-04-11T10:00:14.492Z,99374.94
2023-04-11T10:02:41.799Z,99365.03
2023-04-11T10:05:10.384Z,99355.81
2023-04-11T10:07:45.732Z,99370.16
2023-04-11T10:10:23.573Z,99356.38
2023-04-11T10:12:51.027Z,99364.97
2023-04-11T10:15:18.284Z,99371.06
2023-04-11T10:18:08.989Z,99383.22
2023-04-11T10:20:35.662Z,99406.22
2023-04-11T10:23:02.143Z,99411.66
2023-04-11T10:25:28.848Z,99402.88
2023-04-11T10:28:03.947Z,99393.38
2023-04-11T10:30:39.350Z,99394.88
2023-04-11T10:33:13.407Z,99389.91
2023-04-11T10:36:02.033Z,99384.22
2023-04-11T10:38:43.719Z,99387.28
2023-04-11T10:41:22.223Z,99388.50
2023-04-11T10:43:49.446Z,99375.81
2023-04-11T10:46:24.099Z,99376.09
2023-04-11T10:48:56.830Z,99370.53
2023-04-11T10:51:27.704Z,99362.31
2023-04-11T10:53:59.274Z,99378.09
2023-04-11T10:56:45.300Z,99370.00
2023-04-11T10:59:36.291Z,99366.72
2023-04-11T11:02:03.290Z,99358.69
2023-04-11T11:04:40.178Z,99363.25
2023-04-11T11:07:12.114Z,99358.97
2023-04-11T11:09:38.653Z,99367.56
2023-04-11T11:12:09.164Z,99353.44
2023-04-11T11:14:36.480Z,99359.84
2023-04-11T11:17:03.854Z,99368.22
2023-04-11T11:19:31.383Z,99358.47
2023-04-11T11:22:03.684Z,99357.63
2023-04-11T11:24:30.824Z,99373.25
2023-04-11T11:26:58.026Z,99366.69
2023-04-11T11:29:36.748Z,99367.09
2023-04-11T11:32:04.145Z,99374.84
2023-04-11T11:34:33.621Z,99373.28
2023-04-11T11:37:04.223Z,99375.16
2023-04-11T11:39:31.656Z,99367.56
2023-04-11T11:41:58.610Z,99371.63
2023-04-11T11:44:26.596Z,99390.91
2023-04-11T11:47:06.922Z,99373.28
2023-04-11T11:49:49.468Z,99382.34
2023-04-11T11:52:35.251Z,99377.00
2023-04-11T11:55:03.539Z,99374.59
2023-04-11T11:57:29.958Z,99374.59
2023-04-11T11:59:57.433Z,99363.22
2023-04-11T12:02:26.042Z,99377.25
2023-04-11T12:04:57.985Z,99373.09
2023-04-11T12:07:24.451Z,99377.16
2023-04-11T12:09:58.761Z,99377.25
2023-04-11T12:12:33.353Z,99374.91
2023-04-11T12:15:00.121Z,99377.00
2023-04-11T12:17:32.987Z,99365.34
2023-04-11T12:20:00.922Z,99373.91
2023-04-11T12:22:27.285Z,99365.81
2023-04-11T12:25:13.360Z,99357.50
2023-04-11T12:27:41.937Z,99359.00
2023-04-11T12:30:09.902Z,99364.09
2023-04-11T12:32:38.592Z,99350.84
2023-04-11T12:35:06.658Z,99367.72
2023-04-11T12:37:33.982Z,99363.94
2023-04-11T12:40:00.828Z,99366.69
2023-04-11T12:42:27.696Z,99372.13
2023-04-11T12:44:54.486Z,99378.59
2023-04-11T12:47:21.045Z,99371.81
2023-04-11T12:49:47.520Z,99377.34
2023-04-11T12:52:13.849Z,99371.84
2023-04-11T12:54:40.232Z,99386.78
2023-04-11T12:57:07.460Z,99379.22
2023-04-11T12:59:33.778Z,99358.91
2023-04-11T13:02:00.235Z,99368.91
2023-04-11T13:04:26.702Z,99375.38
2023-04-11T13:06:53.121Z,99366.81
2023-04-11T13:09:19.427Z,99383.63
2023-04-11T13:11:46.016Z,99368.72
2023-04-11T13:14:12.310Z,99371.59
2023-04-11T13:16:38.702Z,99353.97
2023-04-11T13:19:05.316Z,99362.44
2023-04-11T13:21:32.528Z,99358.75
2023-04-11T13:23:58.894Z,99357.91
2023-04-11T13:26:25.264Z,99367.16
2023-04-11T13:28:51.808Z,99359.38
2023-04-11T13:31:19.211Z,99366.47
2023-04-11T13:33:47.816Z,99364.91
2023-04-11T13:36:14.123Z,99376.19
2023-04-11T13:38:40.445Z,99367.31
2023-04-11T13:41:07.043Z,99365.56
2023-04-11T13:43:33.317Z,99369.53
2023-04-11T13:45:59.663Z,99367.56
2023-04-11T13:48:26.055Z,99356.84
2023-04-11T13:50:52.533Z,99359.81
2023-04-11T13:53:18.827Z,99360.31
2023-04-11T13:55:47.573Z,99351.88
2023-04-11T13:58:14.366Z,99353.88
2023-04-11T14:00:40.909Z,99358.41
2023-04-11T14:03:07.389Z,99349.00
2023-04-11T14:05:35.454Z,99348.22
2023-04-11T14:08:02.103Z,99346.22
2023-04-11T14:10:28.664Z,99361.69
2023-04-11T14:12:55.074Z,99359.78
2023-04-11T14:15:21.926Z,99369.16
2023-04-11T14:17:48.302Z,99368.19
2023-04-11T14:20:15.003Z,99365.31
2023-04-11T14:22:42.552Z,99371.81
2023-04-11T14:25:13.300Z,99365.09
2023-04-11T14:27:41.194Z,99365.03
2023-04-11T14:30:12.535Z,99367.66
2023-04-11T14:32:40.450Z,99363.81
2023-04-11T14:35:09.205Z,99354.81
2023-04-11T14:37:36.509Z,99361.41
2023-04-11T14:40:07.825Z,99364.91
2023-04-11T14:42:34.130Z,99374.84
2023-04-11T14:45:00.421Z,99370.13
2023-04-11T14:47:26.792Z,99361.81
2023-04-11T14:49:53.219Z,99365.81
2023-04-11T14:52:19.513Z,99362.81
2023-04-11T14:54:45.882Z,99363.78
2023-04-11T14:57:12.362Z,99360.13
2023-04-11T14:59:38.752Z,99356.75
2023-04-11T15:02:05.993Z,99345.94
2023-04-11T15:04:32.483Z,99353.53
2023-04-11T15:06:59.191Z,99357.50
2023-04-11T15:09:25.633Z,99352.81
2023-04-11T15:11:52.349Z,99343.84
2023-04-11T15:14:18.790Z,99352.97
2023-04-11T15:16:45.204Z,99338.75
2023-04-11T15:19:11.500Z,99356.91
2023-04-11T15:21:38.305Z,99353.06
2023-04-11T15:24:07.173Z,99358.06
2023-04-11T15:26:34.031Z,99349.03
2023-04-11T15:29:00.628Z,99360.53
2023-04-11T15:31:27.227Z,99356.25
2023-04-11T15:33:57.158Z,99356.38
2023-04-11T15:36:24.000Z,99352.16
2023-04-11T15:38:50.346Z,99347.94
2023-04-11T15:41:16.642Z,99351.69
2023-04-11T15:43:42.933Z,99348.81
2023-04-11T15:46:10.117Z,99347.72
2023-04-11T15:48:36.496Z,99355.50
2023-04-11T15:51:10.362Z,99345.47
2023-04-11T15:53:36.763Z,99340.53
2023-04-11T15:56:09.520Z,99345.94
2023-04-11T15:58:35.802Z,99342.81
2023-04-11T16:01:02.187Z,99340.16
2023-04-11T16:03:32.597Z,99349.94
2023-04-11T16:05:59.944Z,99344.34
2023-04-11T16:08:27.350Z,99345.03
2023-04-11T16:10:54.534Z,99339.84
2023-04-11T16:13:20.940Z,99334.47
2023-04-11T16:15:47.230Z,99338.72
2023-04-11T16:18:13.618Z,99338.56
2023-04-11T16:20:40.068Z,99335.97
2023-04-11T16:23:06.353Z,99334.22
2023-04-11T16:25:32.727Z,99332.56
2023-04-11T16:27:59.047Z,99327.22
2023-04-11T16:30:27.742Z,99328.22
2023-04-11T16:32:54.293Z,99331.63
2023-04-11T16:35:20.960Z,99332.72
2023-04-11T16:37:47.265Z,99326.41
2023-04-11T16:40:13.603Z,99321.41
2023-04-11T16:42:40.235Z,99326.41
2023-04-11T16:45:08.301Z,99323.06
2023-04-11T16:47:34.584Z,99324.50
2023-04-11T16:50:01.055Z,99325.03
2023-04-11T16:52:28.134Z,99324.28
2023-04-11T16:54:54.535Z,99325.28
2023-04-11T16:57:20.892Z,99329.72
2023-04-11T16:59:47.250Z,99335.84
2023-04-11T17:02:13.879Z,99332.28
2023-04-11T17:04:40.371Z,99329.66
2023-04-11T17:07:06.920Z,99334.66
2023-04-11T17:09:33.333Z,99343.56
2023-04-11T17:12:00.181Z,99345.81
2023-04-11T17:14:27.139Z,99339.75
2023-04-11T17:16:53.531Z,99330.78
2023-04-11T17:19:19.875Z,99341.09
2023-04-11T17:21:46.378Z,99333.13
2023-04-11T17:24:12.703Z,99339.16
2023-04-11T17:26:38.998Z,99323.31
2023-04-11T17:29:06.421Z,99325.88
2023-04-11T17:31:32.753Z,99318.34
2023-04-11T17:33:59.463Z,99332.84
2023-04-11T17:36:26.017Z,99329.28
2023-04-11T17:38:54.571Z,99324.09
2023-04-11T17:41:21.367Z,99319.44
2023-04-11T17:43:47.778Z,99328.88
2023-04-11T17:46:14.290Z,99326.59
2023-04-11T17:48:40.653Z,99327.66
2023-04-11T17:51:07.284Z,99321.00
2023-04-11T17:53:33.875Z,99326.97
2023-04-11T17:56:05.673Z,99333.88
2023-04-11T17:58:32.447Z,99316.16
2023-04-11T18:00:58.753Z,99330.34
2023-04-11T18:03:25.910Z,99323.84
2023-04-11T18:05:53.892Z,99321.22
2023-04-11T18:08:22.594Z,99322.91
2023-04-11T18:10:52.955Z,99318.56
2023-04-11T18:13:19.246Z,99320.59
2023-04-11T18:15:45.594Z,99319.03
2023-04-11T18:18:11.992Z,99317.22
2023-04-11T18:20:38.310Z,99321.41
2023-04-11T18:23:04.637Z,99319.59
2023-04-11T18:25:31.163Z,99310.09
2023-04-11T18:27:57.448Z,99309.00
2023-04-11T18:30:23.882Z,99311.78
2023-04-11T18:32:53.538Z,99323.75
2023-04-11T18:35:20.666Z,99310.63
2023-04-11T18:37:47.130Z,99306.00
2023-04-11T18:40:14.375Z,99315.91
2023-04-11T18:42:43.237Z,99308.38
2023-04-11T18:45:14.118Z,99306.25
2023-04-11T18:47:43.945Z,99309.06
2023-04-11T18:50:10.444Z,99320.56
2023-04-11T18:52:36.862Z,99318.34
2023-04-11T18:55:03.551Z,99309.88
2023-04-11T18:57:33.852Z,99307.88
2023-04-11T19:00:12.895Z,99303.19
2023-04-11T19:02:41.433Z,99303.38
2023-04-11T19:05:13.368Z,99293.19
2023-04-11T19:07:41.605Z,99296.41
2023-04-11T19:10:09.416Z,99295.16
2023-04-11T19:12:35.865Z,99301.53
2023-04-11T19:15:02.465Z,99300.56
2023-04-11T19:17:28.903Z,99292.50
2023-04-11T19:19:55.413Z,99298.91
2023-04-11T19:22:21.720Z,99302.97
2023-04-11T19:24:49.674Z,99286.66
2023-04-11T19:27:18.266Z,99289.16
2023-04-11T19:29:47.667Z,99285.69
2023-04-11T19:32:17.487Z,99294.00
2023-04-11T19:34:43.949Z,99291.22
2023-04-11T19:37:10.301Z,99282.03
2023-04-11T19:39:38.932Z,99287.59
2023-04-11T19:42:06.896Z,99277.72
2023-04-11T19:44:33.272Z,99281.22
2023-04-11T19:46:59.591Z,99279.50
2023-04-11T19:49:25.938Z,99272.84
2023-04-11T19:51:52.403Z,99262.94
2023-04-11T19:54:18.813Z,99267.28
2023-04-11T19:56:46.377Z,99272.03
2023-04-11T19:59:12.684Z,99262.13
2023-04-11T20:01:39.061Z,99262.13
2023-04-11T20:04:06.189Z,99251.81
2023-04-11T20:06:34.766Z,99254.88
2023-04-11T20:09:01.596Z,99258.06
2023-04-11T20:11:29.240Z,99242.75
2023-04-11T20:13:55.912Z,99239.81
2023-04-11T20:16:24.711Z,99234.75
2023-04-11T20:18:52.264Z,99232.41
2023-04-11T20:21:18.627Z,99231.44
2023-04-11T20:23:44.899Z,99231.44
2023-04-11T20:26:11.270Z,99232.13
2023-04-11T20:28:37.840Z,99229.13
2023-04-11T20:31:04.673Z,99228.88
2023-04-11T20:33:31.407Z,99228.31
2023-04-11T20:35:57.899Z,99223.59
2023-04-11T20:38:24.228Z,99221.34
2023-04-11T20:40:50.568Z,99219.97
2023-04-11T20:43:17.543Z,99213.41
2023-04-11T20:45:45.593Z,99209.59
2023-04-11T20:48:13.551Z,99208.19
2023-04-11T20:50:41.815Z,99198.06
2023-04-11T20:53:08.468Z,99202.00
2023-04-11T20:55:34.913Z,99184.22
2023-04-11T20:58:01.343Z,99189.38
2023-04-11T21:00:27.696Z,99180.34
2023-04-11T21:02:54.200Z,99184.81
2023-04-11T21:05:24.694Z,99181.00
2023-04-11T21:07:54.081Z,99184.66
2023-04-11T21:10:20.841Z,99189.88
2023-04-11T21:12:56.398Z,99175.84
2023-04-11T21:15:22.806Z,99174.06
2023-04-11T21:17:49.985Z,99170.09
2023-04-11T21:20:19.786Z,99159.25
2023-04-11T21:22:52.927Z,99157.97
2023-04-11T21:25:19.695Z,99146.94
2023-04-11T21:27:46.597Z,99152.66
2023-04-11T21:30:14.183Z,99145.84
2023-04-11T21:32:40.917Z,99135.13
2023-04-11T21:35:09.487Z,99132.13
2023-04-11T21:37:36.202Z,99120.19
2023-04-11T21:40:03.448Z,99129.69
2023-04-11T21:42:29.752Z,99132.22
2023-04-11T21:44:56.117Z,99131.91
2023-04-11T21:47:22.548Z,99132.91
2023-04-11T21:49:49.221Z,99127.16
2023-04-11T21:52:15.660Z,99114.25
2023-04-11T21:54:46.850Z,99125.00
2023-04-11T21:57:13.245Z,99124.56
2023-04-11T21:59:39.611Z,99123.84
2023-04-11T22:02:06.642Z,99124.84
2023-04-11T22:04:47.295Z,99124.97
2023-04-11T22:07:18.207Z,99113.34
2023-04-11T22:09:46.901Z,99110.53
2023-04-11T22:12:17.536Z,99106.56
2023-04-11T22:14:43.861Z,99114.06
2023-04-11T22:17:10.260Z,99102.91
2023-04-11T22:19:36.567Z,99095.94
2023-04-11T22:22:03.170Z,99097.88
2023-04-11T22:24:32.571Z,99107.03
2023-04-11T22:26:58.852Z,99105.91
2023-04-11T22:29:30.177Z,99096.03
2023-04-11T22:32:00.864Z,99085.31
2023-04-11T22:34:28.060Z,99086.03
2023-04-11T22:36:54.418Z,99077.75
2023-04-11T22:39:21.855Z,99074.50
2023-04-11T22:41:50.498Z,99076.78
2023-04-11T22:44:17.766Z,99061.69
2023-04-11T22:47:05.989Z,99062.81
2023-04-11T22:49:40.011Z,99059.97
2023-04-11T22:52:07.228Z,99065.31
2023-04-11T22:54:34.843Z,99056.66
2023-04-11T22:57:01.504Z,99048.78
2023-04-11T22:59:28.198Z,99042.47
2023-04-11T23:01:54.911Z,99039.13
2023-04-11T23:04:22.024Z,99035.13
2023-04-11T23:06:51.398Z,99042.97
2023-04-11T23:09:18.092Z,99039.50
2023-04-11T23:11:45.367Z,99037.84
2023-04-11T23:14:12.081Z,99031.59
2023-04-11T23:16:38.390Z,99027.16
2023-04-11T23:19:04.835Z,99016.19
2023-04-11T23:21:31.120Z,99006.03
2023-04-11T23:23:58.024Z,99006.00
2023-04-11T23:26:24.679Z,99001.84
2023-04-11T23:28:51.018Z,99002.69
2023-04-11T23:31:20.278Z,98989.91
2023-04-11T23:33:46.641Z,98988.94
2023-04-11T23:36:13.533Z,98986.44
2023-04-11T23:38:39.985Z,98985.31
2023-04-11T23:41:06.677Z,98969.47
2023-04-11T23:43:33.088Z,98966.00
2023-04-11T23:45:59.506Z,98966.97
2023-04-11T23:48:26.180Z,98960.16
2023-04-11T23:50:52.731Z,98953.47
2023-04-11T23:53:19.049Z,98965.16
2023-04-11T23:55:45.395Z,98954.56
2023-04-11T23:58:11.688Z,98954.31
